sensor_id;sensor_type;location;lat;lon;timestamp;pressure;altitude;pressure_sealevel;temperature;humidity
54854;BME280;40747;49.480;8.658;2023-02-11T00:00:56;102442.28;;;1.86;88.14
54854;BME280;40747;49.480;8.658;2023-02-11T00:03:22;102450.00;;;1.85;87.38
54854;BME280;40747;49.480;8.658;2023-02-11T00:05:58;102443.25;;;1.67;87.21
54854;BME280;40747;49.480;8.658;2023-02-11T00:08:24;102436.06;;;1.60;87.78
54854;BME280;40747;49.480;8.658;2023-02-11T00:10:53;102435.50;;;1.69;88.48
54854;BME280;40747;49.480;8.658;2023-02-11T00:13:19;102388.75;;;1.25;88.41
54854;BME280;40747;49.480;8.658;2023-02-11T00:15:45;102424.13;;;1.44;89.00
54854;BME280;40747;49.480;8.658;2023-02-11T00:18:10;102424.28;;;1.26;89.19
54854;BME280;40747;49.480;8.658;2023-02-11T00:20:38;102419.78;;;1.22;90.09
54854;BME280;40747;49.480;8.658;2023-02-11T00:23:03;102418.81;;;1.20;90.55
54854;BME280;40747;49.480;8.658;2023-02-11T00:25:28;102408.69;;;1.26;90.37
54854;BME280;40747;49.480;8.658;2023-02-11T00:27:54;102418.94;;;1.44;89.44
54854;BME280;40747;49.480;8.658;2023-02-11T00:30:19;102418.31;;;1.28;89.95
54854;BME280;40747;49.480;8.658;2023-02-11T00:32:44;102409.81;;;1.33;90.05
54854;BME280;40747;49.480;8.658;2023-02-11T00:35:10;102420.06;;;1.51;89.29
54854;BME280;40747;49.480;8.658;2023-02-11T00:37:35;102426.53;;;1.60;90.10
54854;BME280;40747;49.480;8.658;2023-02-11T00:40:02;102422.59;;;1.70;89.85
54854;BME280;40747;49.480;8.658;2023-02-11T00:42:28;102422.66;;;1.72;89.21
54854;BME280;40747;49.480;8.658;2023-02-11T00:44:53;102425.41;;;1.76;88.94
54854;BME280;40747;49.480;8.658;2023-02-11T00:47:18;102418.59;;;1.78;88.42
54854;BME280;40747;49.480;8.658;2023-02-11T00:49:44;102410.13;;;1.61;88.25
54854;BME280;40747;49.480;8.658;2023-02-11T00:52:09;102419.00;;;1.67;88.36
54854;BME280;40747;49.480;8.658;2023-02-11T00:54:34;102412.63;;;1.81;88.67
54854;BME280;40747;49.480;8.658;2023-02-11T00:57:00;102409.41;;;1.87;87.68
54854;BME280;40747;49.480;8.658;2023-02-11T00:59:25;102391.63;;;1.76;87.62
54854;BME280;40747;49.480;8.658;2023-02-11T01:01:51;102409.41;;;1.87;88.02
54854;BME280;40747;49.480;8.658;2023-02-11T01:04:16;102410.75;;;1.77;88.05
54854;BME280;40747;49.480;8.658;2023-02-11T01:06:41;102365.72;;;1.55;88.73
54854;BME280;40747;49.480;8.658;2023-02-11T01:09:06;102409.66;;;1.72;88.36
54854;BME280;40747;49.480;8.658;2023-02-11T01:11:32;102413.84;;;1.68;88.12
54854;BME280;40747;49.480;8.658;2023-02-11T01:13:57;102393.19;;;1.71;88.71
54854;BME280;40747;49.480;8.658;2023-02-11T01:16:22;102385.38;;;1.71;87.50
54854;BME280;40747;49.480;8.658;2023-02-11T01:18:47;102415.47;;;1.87;88.35
54854;BME280;40747;49.480;8.658;2023-02-11T01:21:13;102411.66;;;2.02;87.63
54854;BME280;40747;49.480;8.658;2023-02-11T01:23:38;102404.53;;;1.96;87.67
54854;BME280;40747;49.480;8.658;2023-02-11T01:26:04;102398.56;;;1.99;87.03
54854;BME280;40747;49.480;8.658;2023-02-11T01:28:30;102408.44;;;2.07;86.89
54854;BME280;40747;49.480;8.658;2023-02-11T01:30:56;102392.25;;;1.92;87.18
54854;BME280;40747;49.480;8.658;2023-02-11T01:33:21;102377.13;;;1.82;86.83
54854;BME280;40747;49.480;8.658;2023-02-11T01:35:48;102405.69;;;1.82;87.62
54854;BME280;40747;49.480;8.658;2023-02-11T01:38:24;102405.31;;;1.93;88.01
54854;BME280;40747;49.480;8.658;2023-02-11T01:40:55;102397.28;;;2.10;87.45
54854;BME280;40747;49.480;8.658;2023-02-11T01:43:21;102401.22;;;2.23;86.86
54854;BME280;40747;49.480;8.658;2023-02-11T01:48:26;102368.44;;;1.81;87.51
54854;BME280;40747;49.480;8.658;2023-02-11T01:50:58;102380.81;;;2.11;87.81
54854;BME280;40747;49.480;8.658;2023-02-11T01:53:25;102382.66;;;2.13;87.73
54854;BME280;40747;49.480;8.658;2023-02-11T01:56:10;102369.34;;;2.06;87.31
54854;BME280;40747;49.480;8.658;2023-02-11T01:59:23;102374.03;;;2.15;88.20
54854;BME280;40747;49.480;8.658;2023-02-11T02:01:56;102369.34;;;2.06;87.89
54854;BME280;40747;49.480;8.658;2023-02-11T02:04:24;102335.84;;;1.89;88.01
54854;BME280;40747;49.480;8.658;2023-02-11T02:07:00;102363.25;;;2.04;87.87
54854;BME280;40747;49.480;8.658;2023-02-11T02:09:30;102366.13;;;2.11;87.04
54854;BME280;40747;49.480;8.658;2023-02-11T02:11:58;102353.28;;;2.16;86.75
54854;BME280;40747;49.480;8.658;2023-02-11T02:14:24;102335.75;;;2.10;87.39
54854;BME280;40747;49.480;8.658;2023-02-11T02:16:50;102342.72;;;2.11;87.29
54854;BME280;40747;49.480;8.658;2023-02-11T02:27:25;102337.84;;;2.21;86.97
54854;BME280;40747;49.480;8.658;2023-02-11T02:32:51;102328.94;;;2.14;87.73
54854;BME280;40747;49.480;8.658;2023-02-11T02:38:05;102318.16;;;2.03;87.81
54854;BME280;40747;49.480;8.658;2023-02-11T02:40:45;102310.44;;;2.05;87.93
54854;BME280;40747;49.480;8.658;2023-02-11T02:43:12;102293.50;;;1.92;87.84
54854;BME280;40747;49.480;8.658;2023-02-11T02:45:39;102304.72;;;1.91;88.21
54854;BME280;40747;49.480;8.658;2023-02-11T02:48:05;102318.81;;;1.98;88.13
54854;BME280;40747;49.480;8.658;2023-02-11T02:50:34;102316.56;;;2.07;87.05
54854;BME280;40747;49.480;8.658;2023-02-11T02:53:19;102318.16;;;2.03;87.94
54854;BME280;40747;49.480;8.658;2023-02-11T02:56:03;102307.88;;;2.06;87.15
54854;BME280;40747;49.480;8.658;2023-02-11T02:58:46;102313.13;;;2.08;87.33
54854;BME280;40747;49.480;8.658;2023-02-11T03:01:38;102310.47;;;2.06;87.74
54854;BME280;40747;49.480;8.658;2023-02-11T03:04:21;102310.84;;;1.93;86.92
54854;BME280;40747;49.480;8.658;2023-02-11T03:07:18;102312.75;;;1.97;86.89
54854;BME280;40747;49.480;8.658;2023-02-11T03:09:59;102312.53;;;2.15;87.22
54854;BME280;40747;49.480;8.658;2023-02-11T03:12:29;102312.34;;;2.10;86.98
54854;BME280;40747;49.480;8.658;2023-02-11T03:14:57;102314.72;;;2.04;87.22
54854;BME280;40747;49.480;8.658;2023-02-11T03:17:23;102311.91;;;1.98;87.27
54854;BME280;40747;49.480;8.658;2023-02-11T03:19:50;102318.38;;;2.09;87.80
54854;BME280;40747;49.480;8.658;2023-02-11T03:22:19;102299.66;;;1.95;87.10
54854;BME280;40747;49.480;8.658;2023-02-11T03:24:46;102319.69;;;2.22;86.81
54854;BME280;40747;49.480;8.658;2023-02-11T03:27:19;102313.63;;;2.22;86.59
54854;BME280;40747;49.480;8.658;2023-02-11T03:30:05;102334.09;;;2.12;86.70
54854;BME280;40747;49.480;8.658;2023-02-11T03:32:41;102311.19;;;2.02;87.07
54854;BME280;40747;49.480;8.658;2023-02-11T03:35:19;102308.75;;;2.07;87.02
54854;BME280;40747;49.480;8.658;2023-02-11T03:37:52;102343.00;;;2.19;86.85
54854;BME280;40747;49.480;8.658;2023-02-11T03:40:26;102333.47;;;2.20;87.54
54854;BME280;40747;49.480;8.658;2023-02-11T03:42:57;102319.59;;;2.19;87.46
54854;BME280;40747;49.480;8.658;2023-02-11T03:45:24;102314.13;;;2.11;86.84
54854;BME280;40747;49.480;8.658;2023-02-11T03:47:54;102318.56;;;2.14;87.55
54854;BME280;40747;49.480;8.658;2023-02-11T03:50:21;102312.31;;;2.09;87.12
54854;BME280;40747;49.480;8.658;2023-02-11T03:52:48;102315.19;;;2.17;87.69
54854;BME280;40747;49.480;8.658;2023-02-11T03:55:16;102304.44;;;2.07;87.81
54854;BME280;40747;49.480;8.658;2023-02-11T03:57:42;102304.28;;;2.03;88.09
54854;BME280;40747;49.480;8.658;2023-02-11T04:00:09;102296.38;;;2.00;87.23
54854;BME280;40747;49.480;8.658;2023-02-11T04:02:37;102299.66;;;1.95;87.49
54854;BME280;40747;49.480;8.658;2023-02-11T04:05:04;102273.81;;;1.99;87.71
54854;BME280;40747;49.480;8.658;2023-02-11T04:07:31;102299.66;;;2.20;87.60
54854;BME280;40747;49.480;8.658;2023-02-11T04:09:56;102297.81;;;2.16;86.87
54854;BME280;40747;49.480;8.658;2023-02-11T04:12:21;102292.50;;;2.12;86.73
54854;BME280;40747;49.480;8.658;2023-02-11T04:14:47;102298.81;;;2.19;86.57
54854;BME280;40747;49.480;8.658;2023-02-11T04:17:12;102292.50;;;2.37;86.68
54854;BME280;40747;49.480;8.658;2023-02-11T04:19:37;102282.88;;;2.34;85.86
54854;BME280;40747;49.480;8.658;2023-02-11T04:22:03;102258.97;;;2.20;86.71
54854;BME280;40747;49.480;8.658;2023-02-11T04:24:29;102275.63;;;2.25;86.38
54854;BME280;40747;49.480;8.658;2023-02-11T04:26:54;102275.66;;;2.27;86.24
54854;BME280;40747;49.480;8.658;2023-02-11T04:29:20;102267.13;;;2.31;86.70
54854;BME280;40747;49.480;8.658;2023-02-11T04:31:45;102258.97;;;2.20;87.01
54854;BME280;40747;49.480;8.658;2023-02-11T04:34:10;102265.31;;;2.28;86.38
54854;BME280;40747;49.480;8.658;2023-02-11T04:36:36;102259.75;;;2.18;86.25
54854;BME280;40747;49.480;8.658;2023-02-11T04:39:02;102188.38;;;1.84;86.54
54854;BME280;40747;49.480;8.658;2023-02-11T04:41:27;102239.56;;;2.10;86.49
54854;BME280;40747;49.480;8.658;2023-02-11T04:43:52;102241.22;;;2.08;86.55
54854;BME280;40747;49.480;8.658;2023-02-11T04:46:18;102251.94;;;2.18;87.22
54854;BME280;40747;49.480;8.658;2023-02-11T04:48:43;102232.50;;;2.06;86.52
54854;BME280;40747;49.480;8.658;2023-02-11T04:51:08;102210.81;;;1.82;86.69
54854;BME280;40747;49.480;8.658;2023-02-11T04:53:34;102240.06;;;2.00;87.01
54854;BME280;40747;49.480;8.658;2023-02-11T04:55:59;102245.25;;;2.00;87.18
54854;BME280;40747;49.480;8.658;2023-02-11T04:58:25;102230.41;;;1.72;87.42
54854;BME280;40747;49.480;8.658;2023-02-11T05:00:50;102272.13;;;1.76;87.08
54854;BME280;40747;49.480;8.658;2023-02-11T05:03:16;102250.50;;;1.77;87.65
54854;BME280;40747;49.480;8.658;2023-02-11T05:05:41;102263.88;;;1.87;87.75
54854;BME280;40747;49.480;8.658;2023-02-11T05:08:10;102265.69;;;1.89;87.80
54854;BME280;40747;49.480;8.658;2023-02-11T05:10:36;102275.13;;;1.87;88.06
54854;BME280;40747;49.480;8.658;2023-02-11T05:13:02;102269.75;;;1.83;87.53
54854;BME280;40747;49.480;8.658;2023-02-11T05:15:27;102274.13;;;1.84;87.74
54854;BME280;40747;49.480;8.658;2023-02-11T05:17:52;102289.47;;;1.77;87.62
54854;BME280;40747;49.480;8.658;2023-02-11T05:20:19;102267.31;;;1.63;87.75
54854;BME280;40747;49.480;8.658;2023-02-11T05:22:44;102248.03;;;1.56;88.15
54854;BME280;40747;49.480;8.658;2023-02-11T05:25:10;102290.25;;;1.75;87.50
54854;BME280;40747;49.480;8.658;2023-02-11T05:27:35;102297.41;;;1.80;87.58
54854;BME280;40747;49.480;8.658;2023-02-11T05:30:01;102263.16;;;1.68;87.35
54854;BME280;40747;49.480;8.658;2023-02-11T05:32:26;102293.09;;;1.81;88.57
54854;BME280;40747;49.480;8.658;2023-02-11T05:34:51;102287.78;;;1.78;88.23
54854;BME280;40747;49.480;8.658;2023-02-11T05:37:17;102268.94;;;1.61;88.84
54854;BME280;40747;49.480;8.658;2023-02-11T05:39:42;102259.84;;;1.72;89.19
54854;BME280;40747;49.480;8.658;2023-02-11T05:42:08;102256.34;;;1.70;88.93
54854;BME280;40747;49.480;8.658;2023-02-11T05:44:33;102252.09;;;1.74;88.38
54854;BME280;40747;49.480;8.658;2023-02-11T05:46:58;102259.13;;;1.76;88.94
54854;BME280;40747;49.480;8.658;2023-02-11T05:49:24;102258.44;;;1.80;88.56
54854;BME280;40747;49.480;8.658;2023-02-11T05:51:49;102264.28;;;1.75;87.71
54854;BME280;40747;49.480;8.658;2023-02-11T05:54:15;102258.66;;;1.87;88.58
54854;BME280;40747;49.480;8.658;2023-02-11T05:56:41;102279.00;;;1.74;88.31
54854;BME280;40747;49.480;8.658;2023-02-11T05:59:06;102273.13;;;1.80;88.88
54854;BME280;40747;49.480;8.658;2023-02-11T06:01:31;102272.06;;;1.75;88.64
54854;BME280;40747;49.480;8.658;2023-02-11T06:03:56;102266.72;;;1.70;89.09
54854;BME280;40747;49.480;8.658;2023-02-11T06:06:23;102268.41;;;1.70;88.66
54854;BME280;40747;49.480;8.658;2023-02-11T06:08:48;102264.28;;;1.75;88.92
54854;BME280;40747;49.480;8.658;2023-02-11T06:11:14;102262.63;;;1.77;88.41
54854;BME280;40747;49.480;8.658;2023-02-11T06:13:40;102260.53;;;1.91;88.63
54854;BME280;40747;49.480;8.658;2023-02-11T06:16:05;102255.94;;;1.84;87.99
54854;BME280;40747;49.480;8.658;2023-02-11T06:18:31;102257.47;;;1.78;88.30
54854;BME280;40747;49.480;8.658;2023-02-11T06:20:58;102247.41;;;1.88;88.17
54854;BME280;40747;49.480;8.658;2023-02-11T06:23:23;102248.13;;;1.84;87.82
54854;BME280;40747;49.480;8.658;2023-02-11T06:25:49;102231.22;;;1.71;87.98
54854;BME280;40747;49.480;8.658;2023-02-11T06:28:14;102252.47;;;1.83;87.42
54854;BME280;40747;49.480;8.658;2023-02-11T06:30:40;102256.06;;;1.87;88.25
54854;BME280;40747;49.480;8.658;2023-02-11T06:33:05;102250.78;;;1.85;88.02
54854;BME280;40747;49.480;8.658;2023-02-11T06:35:30;102269.25;;;1.69;88.50
54854;BME280;40747;49.480;8.658;2023-02-11T06:37:57;102253.03;;;1.52;88.33
54854;BME280;40747;49.480;8.658;2023-02-11T06:40:23;102275.44;;;1.72;88.70
54854;BME280;40747;49.480;8.658;2023-02-11T06:42:48;102254.91;;;1.56;88.78
54854;BME280;40747;49.480;8.658;2023-02-11T06:45:13;102277.13;;;1.70;88.18
54854;BME280;40747;49.480;8.658;2023-02-11T06:47:39;102273.47;;;1.65;88.21
54854;BME280;40747;49.480;8.658;2023-02-11T06:50:07;102274.38;;;1.67;88.37
54854;BME280;40747;49.480;8.658;2023-02-11T06:52:33;102289.06;;;1.65;88.32
54854;BME280;40747;49.480;8.658;2023-02-11T06:54:58;102277.88;;;1.68;88.41
54854;BME280;40747;49.480;8.658;2023-02-11T06:57:24;102279.06;;;1.53;88.31
54854;BME280;40747;49.480;8.658;2023-02-11T06:59:49;102279.34;;;1.61;88.36
54854;BME280;40747;49.480;8.658;2023-02-11T07:02:15;102280.53;;;1.46;88.36
54854;BME280;40747;49.480;8.658;2023-02-11T07:04:40;102284.63;;;1.62;88.83
54854;BME280;40747;49.480;8.658;2023-02-11T07:07:06;102285.97;;;1.75;87.98
54854;BME280;40747;49.480;8.658;2023-02-11T07:09:31;102288.38;;;1.71;87.88
54854;BME280;40747;49.480;8.658;2023-02-11T07:11:56;102290.78;;;1.66;87.80
54854;BME280;40747;49.480;8.658;2023-02-11T07:14:21;102262.84;;;1.59;87.42
54854;BME280;40747;49.480;8.658;2023-02-11T07:16:47;102251.19;;;1.72;87.28
54854;BME280;40747;49.480;8.658;2023-02-11T07:19:12;102279.47;;;1.87;86.73
54854;BME280;40747;49.480;8.658;2023-02-11T07:21:38;102272.47;;;1.86;87.49
54854;BME280;40747;49.480;8.658;2023-02-11T07:24:07;102278.22;;;1.77;87.26
54854;BME280;40747;49.480;8.658;2023-02-11T07:26:32;102276.78;;;1.85;87.56
54854;BME280;40747;49.480;8.658;2023-02-11T07:28:58;102273.94;;;1.79;87.46
54854;BME280;40747;49.480;8.658;2023-02-11T07:31:26;102255.31;;;1.67;86.73
54854;BME280;40747;49.480;8.658;2023-02-11T07:33:54;102255.75;;;1.79;86.90
54854;BME280;40747;49.480;8.658;2023-02-11T07:36:20;102284.03;;;1.94;87.58
54854;BME280;40747;49.480;8.658;2023-02-11T07:38:45;102285.69;;;1.92;87.38
54854;BME280;40747;49.480;8.658;2023-02-11T07:41:14;102285.34;;;1.83;86.66
54854;BME280;40747;49.480;8.658;2023-02-11T07:43:41;102287.91;;;1.81;87.71
54854;BME280;40747;49.480;8.658;2023-02-11T07:46:11;102287.00;;;1.12;89.23
54854;BME280;40747;49.480;8.658;2023-02-11T07:48:37;102293.44;;;0.78;91.59
54854;BME280;40747;49.480;8.658;2023-02-11T07:51:09;102303.13;;;0.82;92.84
54854;BME280;40747;49.480;8.658;2023-02-11T07:53:35;102273.47;;;0.56;92.86
54854;BME280;40747;49.480;8.658;2023-02-11T07:56:03;102300.31;;;0.78;92.84
54854;BME280;40747;49.480;8.658;2023-02-11T07:58:28;102300.94;;;1.14;90.98
54854;BME280;40747;49.480;8.658;2023-02-11T08:00:54;102301.53;;;1.30;89.66
54854;BME280;40747;49.480;8.658;2023-02-11T08:03:21;102292.28;;;1.37;89.62
54854;BME280;40747;49.480;8.658;2023-02-11T08:05:47;102288.50;;;1.28;89.78
54854;BME280;40747;49.480;8.658;2023-02-11T08:08:12;102303.56;;;1.60;89.58
54854;BME280;40747;49.480;8.658;2023-02-11T08:10:37;102294.69;;;1.77;88.17
54854;BME280;40747;49.480;8.658;2023-02-11T08:13:02;102289.72;;;1.84;87.27
54854;BME280;40747;49.480;8.658;2023-02-11T08:15:28;102294.69;;;2.02;86.56
54854;BME280;40747;49.480;8.658;2023-02-11T08:17:53;102299.41;;;2.12;85.73
54854;BME280;40747;49.480;8.658;2023-02-11T08:20:18;102264.59;;;2.08;85.70
54854;BME280;40747;49.480;8.658;2023-02-11T08:22:44;102288.19;;;2.39;85.58
54854;BME280;40747;49.480;8.658;2023-02-11T08:25:09;102289.16;;;2.41;84.33
54854;BME280;40747;49.480;8.658;2023-02-11T08:27:34;102287.06;;;2.56;84.99
54854;BME280;40747;49.480;8.658;2023-02-11T08:30:00;102288.97;;;2.62;83.34
54854;BME280;40747;49.480;8.658;2023-02-11T08:32:25;102283.16;;;2.69;83.36
54854;BME280;40747;49.480;8.658;2023-02-11T08:34:51;102268.00;;;2.56;82.72
54854;BME280;40747;49.480;8.658;2023-02-11T08:37:18;102297.72;;;2.90;83.16
54854;BME280;40747;49.480;8.658;2023-02-11T08:39:43;102285.50;;;2.87;82.87
54854;BME280;40747;49.480;8.658;2023-02-11T08:42:08;102262.59;;;2.77;82.12
54854;BME280;40747;49.480;8.658;2023-02-11T08:44:34;102289.66;;;3.09;82.69
54854;BME280;40747;49.480;8.658;2023-02-11T08:46:59;102291.19;;;3.03;81.85
54854;BME280;40747;49.480;8.658;2023-02-11T08:49:24;102263.22;;;2.95;81.85
54854;BME280;40747;49.480;8.658;2023-02-11T08:51:50;102293.31;;;3.15;81.18
54854;BME280;40747;49.480;8.658;2023-02-11T08:54:16;102287.84;;;3.34;81.08
54854;BME280;40747;49.480;8.658;2023-02-11T08:56:41;102285.50;;;3.43;80.36
54854;BME280;40747;49.480;8.658;2023-02-11T08:59:07;102286.91;;;3.32;80.00
54854;BME280;40747;49.480;8.658;2023-02-11T09:01:33;102292.22;;;3.35;80.19
54854;BME280;40747;49.480;8.658;2023-02-11T09:03:58;102302.09;;;3.46;80.42
54854;BME280;40747;49.480;8.658;2023-02-11T09:06:24;102309.78;;;3.42;79.96
54854;BME280;40747;49.480;8.658;2023-02-11T09:08:52;102275.56;;;3.30;80.19
54854;BME280;40747;49.480;8.658;2023-02-11T09:11:21;102309.53;;;3.62;80.35
54854;BME280;40747;49.480;8.658;2023-02-11T09:13:47;102279.84;;;3.57;79.82
54854;BME280;40747;49.480;8.658;2023-02-11T09:16:18;102305.22;;;3.93;80.10
54854;BME280;40747;49.480;8.658;2023-02-11T09:18:44;102317.84;;;4.09;79.59
54854;BME280;40747;49.480;8.658;2023-02-11T09:21:10;102305.47;;;4.34;78.88
54854;BME280;40747;49.480;8.658;2023-02-11T09:23:36;102323.69;;;4.66;78.39
54854;BME280;40747;49.480;8.658;2023-02-11T09:26:09;102316.94;;;5.09;76.20
54854;BME280;40747;49.480;8.658;2023-02-11T09:28:35;102322.50;;;5.23;75.49
54854;BME280;40747;49.480;8.658;2023-02-11T09:31:07;102327.31;;;5.45;73.68
54854;BME280;40747;49.480;8.658;2023-02-11T09:33:34;102295.13;;;5.46;73.30
54854;BME280;40747;49.480;8.658;2023-02-11T09:36:01;102315.47;;;5.59;73.16
54854;BME280;40747;49.480;8.658;2023-02-11T09:38:27;102317.34;;;5.66;72.45
54854;BME280;40747;49.480;8.658;2023-02-11T09:40:52;102313.97;;;5.70;72.58
54854;BME280;40747;49.480;8.658;2023-02-11T09:43:40;102304.88;;;5.53;73.09
54854;BME280;40747;49.480;8.658;2023-02-11T09:46:12;102285.59;;;5.48;73.66
54854;BME280;40747;49.480;8.658;2023-02-11T09:48:40;102316.09;;;5.88;73.29
54854;BME280;40747;49.480;8.658;2023-02-11T09:51:14;102316.03;;;5.87;72.59
54854;BME280;40747;49.480;8.658;2023-02-11T09:53:43;102311.03;;;5.98;71.72
54854;BME280;40747;49.480;8.658;2023-02-11T09:56:13;102311.22;;;6.04;72.43
54854;BME280;40747;49.480;8.658;2023-02-11T09:58:40;102302.25;;;5.94;72.25
54854;BME280;40747;49.480;8.658;2023-02-11T10:06:52;102301.28;;;5.89;72.97
54854;BME280;40747;49.480;8.658;2023-02-11T10:20:28;102302.69;;;4.95;75.32
54854;BME280;40747;49.480;8.658;2023-02-11T10:23:21;102304.28;;;4.90;77.55
54854;BME280;40747;49.480;8.658;2023-02-11T10:25:51;102287.81;;;4.92;76.09
54854;BME280;40747;49.480;8.658;2023-02-11T10:28:35;102302.25;;;5.15;76.42
54854;BME280;40747;49.480;8.658;2023-02-11T10:33:45;102303.13;;;5.53;75.79
54854;BME280;40747;49.480;8.658;2023-02-11T10:36:13;102306.50;;;5.48;74.37
54854;BME280;40747;49.480;8.658;2023-02-11T10:38:39;102299.16;;;5.31;77.41
54854;BME280;40747;49.480;8.658;2023-02-11T10:41:05;102295.41;;;5.58;75.56
54854;BME280;40747;49.480;8.658;2023-02-11T10:43:32;102286.91;;;5.68;75.57
54854;BME280;40747;49.480;8.658;2023-02-11T10:46:02;102286.78;;;5.62;76.57
54854;BME280;40747;49.480;8.658;2023-02-11T10:51:29;102269.41;;;5.64;75.96
54854;BME280;40747;49.480;8.658;2023-02-11T10:56:32;102274.44;;;6.42;73.50
54854;BME280;40747;49.480;8.658;2023-02-11T10:59:02;102289.13;;;6.87;73.40
54854;BME280;40747;49.480;8.658;2023-02-11T11:01:46;102287.81;;;7.16;71.08
54854;BME280;40747;49.480;8.658;2023-02-11T11:06:54;102292.56;;;7.40;71.11
54854;BME280;40747;49.480;8.658;2023-02-11T11:09:30;102288.56;;;7.68;70.25
54854;BME280;40747;49.480;8.658;2023-02-11T11:14:54;102273.94;;;7.87;68.88
54854;BME280;40747;49.480;8.658;2023-02-11T11:17:20;102274.00;;;7.92;68.46
54854;BME280;40747;49.480;8.658;2023-02-11T11:19:45;102296.16;;;8.16;68.60
54854;BME280;40747;49.480;8.658;2023-02-11T11:22:20;102299.81;;;8.33;68.90
54854;BME280;40747;49.480;8.658;2023-02-11T11:24:46;102291.94;;;8.33;68.08
54854;BME280;40747;49.480;8.658;2023-02-11T11:27:22;102296.19;;;8.22;68.89
54854;BME280;40747;49.480;8.658;2023-02-11T11:29:51;102307.41;;;8.07;68.50
54854;BME280;40747;49.480;8.658;2023-02-11T11:34:51;102312.38;;;8.61;67.70
54854;BME280;40747;49.480;8.658;2023-02-11T11:37:45;102317.78;;;8.81;67.71
54854;BME280;40747;49.480;8.658;2023-02-11T11:42:40;102303.34;;;7.62;69.79
54854;BME280;40747;49.480;8.658;2023-02-11T11:45:25;102335.94;;;7.81;69.65
54854;BME280;40747;49.480;8.658;2023-02-11T11:50:25;102312.00;;;8.28;70.20
54854;BME280;40747;49.480;8.658;2023-02-11T11:52:58;102307.41;;;8.07;69.94
54854;BME280;40747;49.480;8.658;2023-02-11T11:55:35;102302.47;;;8.36;69.83
54854;BME280;40747;49.480;8.658;2023-02-11T11:58:03;102299.22;;;7.81;70.56
54854;BME280;40747;49.480;8.658;2023-02-11T12:09:44;102279.63;;;8.26;69.48
54854;BME280;40747;49.480;8.658;2023-02-11T12:12:20;102277.47;;;7.90;70.35
54854;BME280;40747;49.480;8.658;2023-02-11T12:17:38;102272.56;;;7.47;72.92
54854;BME280;40747;49.480;8.658;2023-02-11T12:25:55;102265.13;;;8.65;70.01
54854;BME280;40747;49.480;8.658;2023-02-11T12:28:28;102266.09;;;8.74;68.70
54854;BME280;40747;49.480;8.658;2023-02-11T12:34:14;102260.94;;;8.88;68.42
54854;BME280;40747;49.480;8.658;2023-02-11T12:39:56;102250.75;;;9.42;68.28
54854;BME280;40747;49.480;8.658;2023-02-11T12:42:50;102256.97;;;9.64;66.33
54854;BME280;40747;49.480;8.658;2023-02-11T12:51:16;102261.19;;;8.20;70.00
54854;BME280;40747;49.480;8.658;2023-02-11T12:54:17;102269.91;;;8.20;71.66
54854;BME280;40747;49.480;8.658;2023-02-11T12:56:58;102266.34;;;8.12;70.74
54854;BME280;40747;49.480;8.658;2023-02-11T13:00:06;102261.41;;;8.42;70.51
54854;BME280;40747;49.480;8.658;2023-02-11T13:02:43;102258.97;;;8.62;70.03
54854;BME280;40747;49.480;8.658;2023-02-11T13:05:17;102254.53;;;8.53;70.31
54854;BME280;40747;49.480;8.658;2023-02-11T13:07:46;102258.09;;;8.60;70.74
54854;BME280;40747;49.480;8.658;2023-02-11T13:10:26;102251.97;;;8.62;70.21
54854;BME280;40747;49.480;8.658;2023-02-11T13:12:54;102260.06;;;7.29;74.93
54854;BME280;40747;49.480;8.658;2023-02-11T13:15:42;102260.84;;;7.20;75.90
54854;BME280;40747;49.480;8.658;2023-02-11T13:24:06;102246.19;;;7.37;76.60
54854;BME280;40747;49.480;8.658;2023-02-11T13:32:06;102244.84;;;7.04;77.73
54854;BME280;40747;49.480;8.658;2023-02-11T13:40:24;102234.31;;;7.00;78.26
54854;BME280;40747;49.480;8.658;2023-02-11T13:42:53;102247.53;;;7.08;78.66
54854;BME280;40747;49.480;8.658;2023-02-11T13:47:57;102235.28;;;7.05;79.39
54854;BME280;40747;49.480;8.658;2023-02-11T13:50:25;102236.22;;;7.09;80.09
54854;BME280;40747;49.480;8.658;2023-02-11T13:53:02;102240.50;;;7.03;80.87
54854;BME280;40747;49.480;8.658;2023-02-11T13:55:29;102225.50;;;6.93;80.47
54854;BME280;40747;49.480;8.658;2023-02-11T14:06:11;102243.72;;;8.25;76.44
54854;BME280;40747;49.480;8.658;2023-02-11T14:14:25;102238.50;;;8.30;76.64
54854;BME280;40747;49.480;8.658;2023-02-11T14:19:43;102237.88;;;8.54;75.73
54854;BME280;40747;49.480;8.658;2023-02-11T14:22:29;102233.75;;;8.82;74.53
54854;BME280;40747;49.480;8.658;2023-02-11T14:25:19;102234.72;;;8.95;74.28
54854;BME280;40747;49.480;8.658;2023-02-11T14:28:00;102232.94;;;8.97;74.04
54854;BME280;40747;49.480;8.658;2023-02-11T14:30:43;102219.75;;;8.88;73.36
54854;BME280;40747;49.480;8.658;2023-02-11T14:33:19;102233.09;;;9.21;73.03
54854;BME280;40747;49.480;8.658;2023-02-11T14:38:50;102216.41;;;9.11;72.72
54854;BME280;40747;49.480;8.658;2023-02-11T14:41:23;102235.84;;;9.39;72.64
54854;BME280;40747;49.480;8.658;2023-02-11T14:43:52;102241.13;;;9.44;72.27
54854;BME280;40747;49.480;8.658;2023-02-11T14:46:21;102240.22;;;9.43;72.30
54854;BME280;40747;49.480;8.658;2023-02-11T14:48:49;102252.03;;;8.70;73.48
54854;BME280;40747;49.480;8.658;2023-02-11T14:51:22;102252.53;;;8.32;75.68
54854;BME280;40747;49.480;8.658;2023-02-11T14:53:53;102253.31;;;8.25;76.68
54854;BME280;40747;49.480;8.658;2023-02-11T14:56:26;102251.63;;;8.30;76.18
54854;BME280;40747;49.480;8.658;2023-02-11T14:58:53;102261.50;;;8.48;76.16
54854;BME280;40747;49.480;8.658;2023-02-11T15:01:40;102254.47;;;8.50;76.04
54854;BME280;40747;49.480;8.658;2023-02-11T15:04:28;102253.00;;;8.84;74.96
54854;BME280;40747;49.480;8.658;2023-02-11T15:07:03;102252.88;;;8.66;75.57
54854;BME280;40747;49.480;8.658;2023-02-11T15:09:43;102241.19;;;8.37;76.65
54854;BME280;40747;49.480;8.658;2023-02-11T15:12:30;102259.78;;;8.56;75.92
54854;BME280;40747;49.480;8.658;2023-02-11T15:14:57;102242.25;;;8.53;76.51